Time,TemperatureF,DewpointF,PressureIn,WindDirection,WindDirectionDegrees,WindSpeedMPH,WindSpeedGustMPH,Humidity,HourlyPrecipIn,Conditions,Clouds,dailyrainin,SolarRadiationWatts/m^2,SoftwareType,DateUTC
2013-01-15 01:00:00,-1.0,-8.0,30.30,SE,133,5.0,6.0,72,-99.99,,,-99.99,0.010000,,2013-01-15 08:00:00,
2013-01-15 01:53:00,-1.0,-8.0,30.30,SE,133,5.0,6.0,72,-99.99,,,-99.99,0.010000,,2013-01-15 08:53:00,
2013-01-15 02:00:00,-3.0,-8.0,30.32,South,175,5.0,6.0,77,-99.99,,,-99.99,0.010000,,2013-01-15 09:00:00,
2013-01-15 02:52:00,-3.0,-8.0,30.32,South,175,5.0,6.0,77,-99.99,,,-99.99,0.010000,,2013-01-15 09:52:00,
2013-01-15 04:00:00,0.0,-6.0,30.33,South,180,5.0,6.0,76,-99.99,,,-99.99,0.010000,,2013-01-15 11:00:00,
2013-01-15 04:53:00,0.0,-6.0,30.33,South,180,5.0,6.0,76,-99.99,,,-99.99,0.010000,,2013-01-15 11:53:00,
2013-01-15 06:00:00,-1.0,-7.0,30.35,South,170,5.0,6.0,78,-99.99,,,-99.99,0.010000,,2013-01-15 13:00:00,
2013-01-15 06:53:00,-1.0,-7.0,30.35,South,170,5.0,6.0,78,-99.99,,,-99.99,0.010000,,2013-01-15 13:53:00,
2013-01-15 07:00:00,0.0,-6.0,30.37,SSE,150,5.0,6.0,72,-99.99,,,-99.99,0.020000,,2013-01-15 14:00:00,
2013-01-15 07:53:00,0.0,-6.0,30.37,SSE,150,5.0,6.0,72,-99.99,,,-99.99,0.020000,,2013-01-15 14:53:00,
2013-01-15 08:00:00,0.0,-6.0,30.35,South,179,5.0,6.0,75,-99.99,,,-99.99,3.810000,,2013-01-15 15:00:00,
2013-01-15 08:53:00,0.0,-6.0,30.35,South,179,5.0,6.0,75,-99.99,,,-99.99,3.810000,,2013-01-15 15:53:00,
2013-01-15 10:00:00,0.0,-6.0,30.41,SSE,157,6.0,7.0,75,-99.99,,,-99.99,63.500000,,2013-01-15 17:00:00,
2013-01-15 10:53:00,0.0,-6.0,30.41,SSE,157,6.0,7.0,75,-99.99,,,-99.99,63.500000,,2013-01-15 17:53:00,
2013-01-15 11:00:00,6.0,-3.0,30.42,South,172,5.0,-999.0,66,-99.99,,,-99.99,268.500000,,2013-01-15 18:00:00,
2013-01-15 11:53:00,6.0,-3.0,30.42,South,172,5.0,-999.0,66,-99.99,,,-99.99,268.500000,,2013-01-15 18:53:00,
2013-01-15 12:00:00,8.0,-2.0,30.40,SSE,165,6.0,-999.0,65,-99.99,,,-99.99,373.399994,,2013-01-15 19:00:00,
2013-01-15 12:53:00,8.0,-2.0,30.40,SSE,165,6.0,-999.0,65,-99.99,,,-99.99,373.399994,,2013-01-15 19:53:00,
2013-01-15 13:00:00,9.0,-1.0,30.39,South,175,5.0,6.0,64,-99.99,,,-99.99,505.200012,,2013-01-15 20:00:00,
2013-01-15 13:53:00,9.0,-1.0,30.39,South,175,5.0,6.0,64,-99.99,,,-99.99,505.200012,,2013-01-15 20:53:00,
2013-01-15 15:00:00,12.0,1.0,30.41,SSE,163,4.0,9.0,60,-99.99,,,-99.99,402.299988,,2013-01-15 22:00:00,
2013-01-15 15:53:00,12.0,1.0,30.41,SSE,163,4.0,9.0,60,-99.99,,,-99.99,402.299988,,2013-01-15 22:53:00,
2013-01-15 16:00:00,12.0,0.0,30.42,SSE,168,3.0,6.0,57,-99.99,,,-99.99,299.000000,,2013-01-15 23:00:00,
2013-01-15 16:53:00,12.0,0.0,30.42,SSE,168,3.0,6.0,57,-99.99,,,-99.99,299.000000,,2013-01-15 23:53:00,
2013-01-15 17:00:00,7.0,-3.0,30.43,SSE,154,4.0,5.0,61,-99.99,,,-99.99,130.199997,,2013-01-16 00:00:00,
2013-01-15 17:53:00,7.0,-3.0,30.43,SSE,154,4.0,5.0,61,-99.99,,,-99.99,130.199997,,2013-01-16 00:53:00,
2013-01-15 18:00:00,0.0,-6.0,30.44,SE,144,4.0,6.0,73,-99.99,,,-99.99,12.200000,,2013-01-16 01:00:00,
2013-01-15 18:53:00,0.0,-6.0,30.44,SE,144,4.0,6.0,73,-99.99,,,-99.99,12.200000,,2013-01-16 01:53:00,
2013-01-15 19:00:00,8.0,2.0,30.46,SSE,155,3.0,6.0,75,-99.99,,,-99.99,0.010000,,2013-01-16 02:00:00,
2013-01-15 19:53:00,8.0,2.0,30.46,SSE,155,3.0,6.0,75,-99.99,,,-99.99,0.010000,,2013-01-16 02:53:00,
2013-01-15 20:00:00,9.0,3.0,30.46,SE,143,3.0,5.0,75,-99.99,,,-99.99,0.010000,,2013-01-16 03:00:00,
2013-01-15 20:53:00,9.0,3.0,30.46,SE,143,3.0,5.0,75,-99.99,,,-99.99,0.010000,,2013-01-16 03:53:00,
2013-01-15 21:00:00,9.0,2.0,30.46,South,183,4.0,5.0,73,-99.99,,,-99.99,0.000000,,2013-01-16 04:00:00,
2013-01-15 21:52:00,9.0,2.0,30.46,South,183,4.0,5.0,73,-99.99,,,-99.99,0.000000,,2013-01-16 04:52:00,
2013-01-15 22:00:00,10.0,5.0,30.47,SSE,166,5.0,6.0,79,-99.99,,,-99.99,0.000000,,2013-01-16 05:00:00,
2013-01-15 22:53:00,10.0,5.0,30.47,SSE,166,5.0,6.0,79,-99.99,,,-99.99,0.000000,,2013-01-16 05:53:00,
2013-01-15 23:00:00,9.0,3.0,30.48,South,180,5.0,-999.0,77,-99.99,,,-99.99,0.010000,,2013-01-16 06:00:00,